createdAt,value
2018-05-24T00:01:58.377Z,18.66
2018-05-24T00:04:25.868Z,18.71
2018-05-24T00:06:53.356Z,18.70
2018-05-24T00:09:20.956Z,18.79
2018-05-24T00:11:48.451Z,18.36
2018-05-24T00:14:15.967Z,18.13
2018-05-24T00:16:43.476Z,18.26
2018-05-24T00:19:11.016Z,18.40
2018-05-24T00:21:38.480Z,18.51
2018-05-24T00:24:05.975Z,18.12
2018-05-24T00:26:33.481Z,18.30
2018-05-24T00:29:01.047Z,18.28
2018-05-24T00:31:28.597Z,18.01
2018-05-24T00:33:56.074Z,18.31
2018-05-24T00:36:23.589Z,18.41
2018-05-24T00:38:51.105Z,18.23
2018-05-24T00:41:18.679Z,18.25
2018-05-24T00:43:46.171Z,18.15
2018-05-24T00:46:14.140Z,18.16
2018-05-24T00:48:41.654Z,18.23
2018-05-24T00:51:09.156Z,18.16
2018-05-24T00:53:36.657Z,17.98
2018-05-24T00:56:04.171Z,18.07
2018-05-24T00:58:31.677Z,17.78
2018-05-24T01:00:59.167Z,18.12
2018-05-24T01:03:26.643Z,17.94
2018-05-24T01:05:54.249Z,17.96
2018-05-24T01:08:21.731Z,17.69
2018-05-24T01:10:49.220Z,17.64
2018-05-24T01:13:16.700Z,18.01
2018-05-24T01:15:44.402Z,18.00
2018-05-24T01:18:11.882Z,17.80
2018-05-24T01:20:39.406Z,18.08
2018-05-24T01:23:06.894Z,17.92
2018-05-24T01:25:34.439Z,17.47
2018-05-24T01:28:01.937Z,17.64
2018-05-24T01:30:29.423Z,17.69
2018-05-24T01:32:56.921Z,17.56
2018-05-24T01:35:24.466Z,17.67
2018-05-24T01:37:52.052Z,17.67
2018-05-24T01:40:19.538Z,17.46
2018-05-24T01:42:47.116Z,17.29
2018-05-24T01:45:14.532Z,17.74
2018-05-24T01:47:42.024Z,17.39
2018-05-24T01:50:09.498Z,17.23
2018-05-24T01:52:37.010Z,17.47
2018-05-24T01:55:04.576Z,17.31
2018-05-24T01:57:32.139Z,17.47
2018-05-24T01:59:59.621Z,17.27
2018-05-24T02:02:27.111Z,17.16
2018-05-24T02:04:54.621Z,17.34
2018-05-24T02:07:22.141Z,17.19
2018-05-24T02:09:49.629Z,17.24
2018-05-24T02:12:17.208Z,17.03
2018-05-24T02:14:44.743Z,17.07
2018-05-24T02:17:12.232Z,16.82
2018-05-24T02:19:39.729Z,16.94
2018-05-24T02:22:07.214Z,16.49
2018-05-24T02:24:34.808Z,16.63
2018-05-24T02:27:02.312Z,16.55
2018-05-24T02:29:29.856Z,16.67
2018-05-24T02:31:57.339Z,16.62
2018-05-24T02:34:24.862Z,16.38
2018-05-24T02:36:52.356Z,16.29
2018-05-24T02:39:19.882Z,16.44
2018-05-24T02:41:47.351Z,16.60
2018-05-24T02:44:14.941Z,16.61
2018-05-24T02:46:42.465Z,16.67
2018-05-24T02:49:09.967Z,16.33
2018-05-24T02:51:37.492Z,16.24
2018-05-24T02:54:04.991Z,16.30
2018-05-24T02:56:32.505Z,16.18
2018-05-24T02:59:00.012Z,16.04
2018-05-24T03:01:27.533Z,16.32
2018-05-24T03:03:55.029Z,16.15
2018-05-24T03:06:22.541Z,16.19
2018-05-24T03:08:50.010Z,16.58
2018-05-24T03:11:17.596Z,16.22
2018-05-24T03:13:45.101Z,16.16
2018-05-24T03:16:12.597Z,16.24
2018-05-24T03:18:40.082Z,16.23
2018-05-24T03:21:07.568Z,16.39
2018-05-24T03:23:35.090Z,16.26
2018-05-24T03:26:02.575Z,16.11
2018-05-24T03:28:30.105Z,16.14
2018-05-24T03:30:57.634Z,16.29
2018-05-24T03:33:25.169Z,16.42
2018-05-24T03:35:52.674Z,16.34
2018-05-24T03:38:20.160Z,16.01
2018-05-24T03:40:47.775Z,16.04
2018-05-24T03:43:15.631Z,16.20
2018-05-24T03:45:43.128Z,16.20
2018-05-24T03:48:10.752Z,15.77
2018-05-24T03:50:38.242Z,15.94
2018-05-24T03:53:05.760Z,15.91
2018-05-24T03:55:33.252Z,16.21
2018-05-24T03:58:00.806Z,17.48
2018-05-24T04:00:40.174Z,17.93
2018-05-24T04:03:19.581Z,18.09
2018-05-24T04:05:47.156Z,17.05
2018-05-24T04:08:14.601Z,16.55
2018-05-24T04:10:42.127Z,16.17
2018-05-24T04:13:09.621Z,16.18
2018-05-24T04:15:37.155Z,15.98
2018-05-24T04:18:04.632Z,16.08
2018-05-24T04:20:32.173Z,16.09
2018-05-24T04:22:59.668Z,15.94
2018-05-24T04:25:27.158Z,15.87
2018-05-24T04:27:54.654Z,16.20
2018-05-24T04:30:22.120Z,16.05
2018-05-24T04:32:49.646Z,16.20
2018-05-24T04:35:17.159Z,16.22
2018-05-24T04:37:44.722Z,16.06
2018-05-24T04:40:12.195Z,16.36
2018-05-24T04:42:39.696Z,16.22
2018-05-24T04:45:07.183Z,16.28
2018-05-24T04:47:34.737Z,16.10
2018-05-24T04:50:02.266Z,16.27
2018-05-24T04:52:29.757Z,16.19
2018-05-24T04:54:57.258Z,16.01
2018-05-24T04:57:24.835Z,16.15
2018-05-24T04:59:52.337Z,16.24
2018-05-24T05:02:19.880Z,16.27
2018-05-24T05:04:47.403Z,16.41
2018-05-24T05:07:15.109Z,16.50
2018-05-24T05:09:42.619Z,16.46
2018-05-24T05:12:10.947Z,16.65
2018-05-24T05:17:12.175Z,16.57
2018-05-24T05:19:39.727Z,16.63
2018-05-24T05:22:07.267Z,16.65
2018-05-24T05:24:34.756Z,16.68
2018-05-24T05:27:02.258Z,16.76
2018-05-24T05:29:29.773Z,16.81
2018-05-24T05:31:57.304Z,16.75
2018-05-24T05:34:24.818Z,16.74
2018-05-24T05:36:52.366Z,16.76
2018-05-24T05:39:19.877Z,16.87
2018-05-24T05:41:47.494Z,16.95
2018-05-24T05:44:15.020Z,16.96
2018-05-24T05:46:42.738Z,17.02
2018-05-24T05:49:10.237Z,16.97
2018-05-24T05:51:37.705Z,17.13
2018-05-24T05:54:05.592Z,17.06
2018-05-24T05:56:33.097Z,17.04
2018-05-24T05:59:00.595Z,17.14
2018-05-24T06:01:28.141Z,17.27
2018-05-24T06:03:55.678Z,17.23
2018-05-24T06:06:23.165Z,17.24
2018-05-24T06:08:50.651Z,17.23
2018-05-24T06:11:18.261Z,17.41
2018-05-24T06:13:45.741Z,17.38
2018-05-24T06:16:13.230Z,17.51
2018-05-24T06:18:40.705Z,17.62
2018-05-24T06:21:08.288Z,17.65
2018-05-24T06:23:35.783Z,17.73
2018-05-24T06:26:03.289Z,17.82
2018-05-24T06:28:30.815Z,17.87
2018-05-24T06:30:58.301Z,17.83
2018-05-24T06:33:25.826Z,17.84
2018-05-24T06:35:53.456Z,17.96
2018-05-24T06:38:21.008Z,18.01
2018-05-24T06:40:48.498Z,18.04
2018-05-24T06:43:16.052Z,18.07
2018-05-24T06:45:43.554Z,18.20
2018-05-24T06:48:11.089Z,18.19
2018-05-24T06:50:38.581Z,18.19
2018-05-24T06:53:06.075Z,18.39
2018-05-24T06:55:34.271Z,18.42
2018-05-24T07:06:45.024Z,18.54
2018-05-24T07:09:12.525Z,18.65
2018-05-24T07:11:40.054Z,18.57
2018-05-24T07:14:07.535Z,18.62
2018-05-24T07:16:35.060Z,18.68
2018-05-24T07:19:02.559Z,18.76
2018-05-24T07:21:30.054Z,18.73
2018-05-24T07:23:57.525Z,18.90
2018-05-24T07:26:25.024Z,18.99
2018-05-24T07:28:52.490Z,19.12
2018-05-24T07:31:20.040Z,19.29
2018-05-24T07:33:47.616Z,19.19
2018-05-24T07:36:16.911Z,19.48
2018-05-24T07:38:44.522Z,19.43
2018-05-24T07:41:12.050Z,19.51
2018-05-24T07:50:07.952Z,19.96
2018-05-24T07:52:35.463Z,19.72
2018-05-24T07:55:03.001Z,19.75
2018-05-24T07:57:30.622Z,20.05
2018-05-24T07:59:58.270Z,19.80
2018-05-24T08:02:25.904Z,20.00
2018-05-24T08:04:53.422Z,20.12
2018-05-24T08:07:20.930Z,20.19
2018-05-24T08:09:48.441Z,20.18
2018-05-24T08:12:15.953Z,20.36
2018-05-24T08:14:43.489Z,20.27
2018-05-24T08:17:11.013Z,20.27
2018-05-24T08:19:51.001Z,20.47
2018-05-24T08:22:18.529Z,20.39
2018-05-24T08:24:46.026Z,20.63
2018-05-24T08:27:13.601Z,20.66
2018-05-24T08:29:41.125Z,20.88
2018-05-24T08:32:09.632Z,20.79
2018-05-24T08:34:37.117Z,20.79
2018-05-24T08:37:04.698Z,21.07
2018-05-24T08:39:32.190Z,21.15
2018-05-24T08:41:59.687Z,21.04
2018-05-24T08:44:27.216Z,21.38
2018-05-24T08:46:54.721Z,21.31
2018-05-24T08:49:22.264Z,21.21
2018-05-24T08:51:49.761Z,21.27
2018-05-24T08:54:17.303Z,21.45
2018-05-24T08:59:43.876Z,21.64
2018-05-24T09:02:11.432Z,21.41
2018-05-24T09:04:39.875Z,21.63
2018-05-24T09:07:07.398Z,21.79
2018-05-24T09:09:34.924Z,21.86
2018-05-24T09:12:02.431Z,21.91
2018-05-24T09:14:29.956Z,21.78
2018-05-24T09:16:57.468Z,21.98
2018-05-24T09:19:24.996Z,22.14
2018-05-24T09:21:52.603Z,22.22
2018-05-24T09:24:20.036Z,22.16
2018-05-24T09:26:47.553Z,22.10
2018-05-24T09:29:15.051Z,22.40
2018-05-24T09:31:42.601Z,22.55
2018-05-24T09:34:10.110Z,22.19
2018-05-24T09:36:37.620Z,22.31
2018-05-24T09:39:05.170Z,22.58
2018-05-24T09:41:32.668Z,22.55
2018-05-24T09:44:00.182Z,22.43
2018-05-24T09:46:27.693Z,22.62
2018-05-24T09:48:55.194Z,22.66
2018-05-24T09:51:22.671Z,22.80
2018-05-24T09:53:50.284Z,22.90
2018-05-24T09:56:17.752Z,22.81
2018-05-24T09:58:45.271Z,22.54
2018-05-24T10:01:12.762Z,22.38
2018-05-24T10:03:40.363Z,22.68
2018-05-24T10:06:07.857Z,22.54
2018-05-24T10:08:35.346Z,22.80
2018-05-24T10:11:02.887Z,22.72
2018-05-24T10:13:30.469Z,22.72
2018-05-24T10:15:57.991Z,22.94
2018-05-24T10:18:25.468Z,23.15
2018-05-24T10:20:52.960Z,23.08
2018-05-24T10:23:20.494Z,23.36
2018-05-24T10:25:47.993Z,23.35
2018-05-24T10:28:15.495Z,23.15
2018-05-24T10:30:43.040Z,23.25
2018-05-24T10:33:10.536Z,23.28
2018-05-24T10:35:38.071Z,23.52
2018-05-24T10:38:05.568Z,23.66
2018-05-24T10:40:33.071Z,23.77
2018-05-24T10:43:00.604Z,24.03
2018-05-24T10:45:28.115Z,23.87
2018-05-24T10:47:55.633Z,23.82
2018-05-24T10:50:23.106Z,23.96
2018-05-24T10:52:50.691Z,24.12
2018-05-24T10:55:18.240Z,23.88
2018-05-24T10:57:45.728Z,23.88
2018-05-24T11:00:13.363Z,23.84
2018-05-24T11:02:40.893Z,23.66
2018-05-24T11:05:08.424Z,23.84
2018-05-24T11:07:35.911Z,23.79
2018-05-24T11:10:03.432Z,24.06
2018-05-24T11:12:30.996Z,24.39
2018-05-24T11:14:58.520Z,24.26
2018-05-24T11:17:26.024Z,24.03
2018-05-24T11:19:53.579Z,24.02
2018-05-24T11:22:21.078Z,23.99
2018-05-24T11:24:49.119Z,23.85
2018-05-24T11:27:16.621Z,23.81
2018-05-24T11:29:44.146Z,23.99
2018-05-24T11:32:11.641Z,23.99
2018-05-24T11:34:39.131Z,24.00
2018-05-24T11:37:06.713Z,24.23
2018-05-24T11:39:34.293Z,23.99
2018-05-24T11:42:01.824Z,24.33
2018-05-24T11:44:29.349Z,24.59
2018-05-24T11:46:56.835Z,24.49
2018-05-24T11:49:24.341Z,24.69
2018-05-24T11:51:51.839Z,24.84
2018-05-24T11:54:19.419Z,25.02
2018-05-24T11:56:46.928Z,25.14
2018-05-24T11:59:14.464Z,24.87
2018-05-24T12:01:42.090Z,25.17
2018-05-24T12:04:09.539Z,25.21
2018-05-24T12:06:37.013Z,25.29
2018-05-24T12:09:04.599Z,25.42
2018-05-24T12:11:32.104Z,25.42
2018-05-24T12:13:59.643Z,25.51
2018-05-24T12:16:27.125Z,25.43
2018-05-24T12:18:54.647Z,25.24
2018-05-24T12:21:22.255Z,25.38
2018-05-24T12:23:49.835Z,25.38
2018-05-24T12:26:17.296Z,25.09
2018-05-24T12:28:44.931Z,24.90
2018-05-24T12:31:12.418Z,24.94
2018-05-24T12:33:39.979Z,25.03
2018-05-24T12:36:07.557Z,25.09
2018-05-24T12:38:35.042Z,25.07
2018-05-24T12:41:02.536Z,25.22
2018-05-24T12:43:30.005Z,25.25
2018-05-24T12:45:57.543Z,25.21
2018-05-24T12:48:25.075Z,25.18
2018-05-24T12:50:52.593Z,25.28
2018-05-24T12:53:20.146Z,25.04
2018-05-24T12:55:47.615Z,25.06
2018-05-24T12:58:15.141Z,25.11
2018-05-24T13:00:42.640Z,25.09
2018-05-24T13:03:10.144Z,25.09
2018-05-24T13:05:37.634Z,25.07
2018-05-24T13:08:05.143Z,25.09
2018-05-24T13:10:32.672Z,25.05
2018-05-24T13:13:00.187Z,24.97
2018-05-24T13:15:28.380Z,25.15
2018-05-24T13:17:55.891Z,25.29
2018-05-24T13:20:23.395Z,25.60
2018-05-24T13:22:50.954Z,25.62
2018-05-24T13:25:18.430Z,25.70
2018-05-24T13:27:45.954Z,25.85
2018-05-24T13:30:13.475Z,25.86
2018-05-24T13:32:41.264Z,26.01
2018-05-24T13:35:08.775Z,26.17
2018-05-24T13:37:36.367Z,26.31
2018-05-24T13:40:03.851Z,26.27
2018-05-24T13:42:31.385Z,26.41
2018-05-24T13:44:58.889Z,26.52
2018-05-24T13:47:26.488Z,26.45
2018-05-24T13:49:53.974Z,26.44
2018-05-24T13:52:21.518Z,26.46
2018-05-24T13:54:49.133Z,26.63
2018-05-24T13:57:16.725Z,26.69
2018-05-24T13:59:44.795Z,26.65
2018-05-24T14:02:12.327Z,26.67
2018-05-24T14:04:40.339Z,26.74
2018-05-24T14:07:08.099Z,26.77
2018-05-24T14:09:35.668Z,26.70
2018-05-24T14:12:03.256Z,26.71
2018-05-24T14:14:30.767Z,26.73
2018-05-24T14:16:58.244Z,26.75
2018-05-24T14:19:25.752Z,26.70
2018-05-24T14:21:53.254Z,26.70
2018-05-24T14:24:20.782Z,26.62
2018-05-24T14:26:48.343Z,26.65
2018-05-24T14:29:15.832Z,26.23
2018-05-24T14:31:43.375Z,26.48
2018-05-24T14:34:10.858Z,26.58
2018-05-24T14:36:38.389Z,26.54
2018-05-24T14:39:05.869Z,26.73
2018-05-24T14:41:33.551Z,26.90
2018-05-24T14:44:01.027Z,26.84
2018-05-24T14:46:28.761Z,26.99
2018-05-24T14:48:56.260Z,26.92
2018-05-24T14:51:23.768Z,26.99
2018-05-24T14:53:51.326Z,26.65
2018-05-24T14:56:18.827Z,26.86
2018-05-24T14:58:46.333Z,26.77
2018-05-24T15:01:13.803Z,26.89
2018-05-24T15:03:41.340Z,26.74
2018-05-24T15:06:08.863Z,26.95
2018-05-24T15:08:36.367Z,26.98
2018-05-24T15:11:03.852Z,26.70
2018-05-24T15:13:43.238Z,26.93
2018-05-24T15:16:10.829Z,27.12
2018-05-24T15:18:38.317Z,27.05
2018-05-24T15:21:05.841Z,26.86
2018-05-24T15:23:33.437Z,27.20
2018-05-24T15:26:00.964Z,27.08
2018-05-24T15:28:28.449Z,27.12
2018-05-24T15:30:56.241Z,27.11
2018-05-24T15:33:23.827Z,27.11
2018-05-24T15:35:51.431Z,27.20
2018-05-24T15:38:19.033Z,27.16
2018-05-24T15:40:46.554Z,27.33
2018-05-24T15:43:14.107Z,27.40
2018-05-24T15:45:41.637Z,27.42
2018-05-24T15:48:09.220Z,27.41
2018-05-24T15:50:36.849Z,27.30
2018-05-24T15:53:04.449Z,27.43
2018-05-24T15:55:31.923Z,27.37
2018-05-24T15:57:59.461Z,27.30
2018-05-24T16:00:26.988Z,27.32
2018-05-24T16:02:54.612Z,27.66
2018-05-24T16:05:22.136Z,27.64
2018-05-24T16:07:49.613Z,27.57
2018-05-24T16:10:17.101Z,27.47
2018-05-24T16:12:44.675Z,27.38
2018-05-24T16:15:12.173Z,27.48
2018-05-24T16:17:39.671Z,27.55
2018-05-24T16:20:07.502Z,27.55
2018-05-24T16:22:35.126Z,27.51
2018-05-24T16:25:02.708Z,27.82
2018-05-24T16:27:30.307Z,28.02
2018-05-24T16:29:57.872Z,27.85
2018-05-24T16:32:25.447Z,27.79
2018-05-24T16:34:53.035Z,27.78
2018-05-24T16:37:20.632Z,27.57
2018-05-24T16:39:48.175Z,27.61
2018-05-24T16:42:15.754Z,27.55
2018-05-24T16:44:43.404Z,27.41
2018-05-24T16:47:10.957Z,27.35
2018-05-24T16:49:38.533Z,27.32
2018-05-24T16:52:06.189Z,27.38
2018-05-24T16:54:33.785Z,27.37
2018-05-24T16:57:01.215Z,27.41
2018-05-24T16:59:28.817Z,27.28
2018-05-24T17:01:56.297Z,27.23
2018-05-24T17:04:23.798Z,26.93
2018-05-24T17:06:51.310Z,26.94
2018-05-24T17:09:18.828Z,26.99
2018-05-24T17:11:46.320Z,26.88
2018-05-24T17:14:13.893Z,26.99
2018-05-24T17:16:41.427Z,27.06
2018-05-24T17:19:20.383Z,27.07
2018-05-24T17:21:47.979Z,27.00
2018-05-24T17:24:15.474Z,27.24
2018-05-24T17:26:43.026Z,27.28
2018-05-24T17:29:10.550Z,27.13
2018-05-24T17:31:38.054Z,27.12
2018-05-24T17:34:05.534Z,27.31
2018-05-24T17:36:33.062Z,27.34
2018-05-24T17:39:00.573Z,27.07
2018-05-24T17:41:28.139Z,26.82
2018-05-24T17:43:55.672Z,26.94
2018-05-24T17:46:23.220Z,26.93
2018-05-24T17:48:50.875Z,26.90
2018-05-24T17:51:18.380Z,27.07
2018-05-24T17:53:45.908Z,26.91
2018-05-24T17:56:13.405Z,27.09
2018-05-24T17:58:41.115Z,26.79
2018-05-24T18:01:08.641Z,26.68
2018-05-24T18:03:36.203Z,26.68
2018-05-24T18:06:03.725Z,26.60
2018-05-24T18:08:31.201Z,26.37
2018-05-24T18:10:58.720Z,26.34
2018-05-24T18:13:26.299Z,26.25
2018-05-24T18:15:53.790Z,26.08
2018-05-24T18:18:21.301Z,25.94
2018-05-24T18:20:48.795Z,25.98
2018-05-24T18:23:16.448Z,25.88
2018-05-24T18:25:43.944Z,25.54
2018-05-24T18:28:11.444Z,25.47
2018-05-24T18:30:38.941Z,25.56
2018-05-24T18:33:06.576Z,25.62
2018-05-24T18:35:34.065Z,25.41
2018-05-24T18:38:01.575Z,25.59
2018-05-24T18:40:29.083Z,25.32
2018-05-24T18:42:56.722Z,25.38
2018-05-24T18:45:24.130Z,25.26
2018-05-24T18:47:51.609Z,25.09
2018-05-24T18:50:19.144Z,25.05
2018-05-24T18:52:46.621Z,25.08
2018-05-24T18:55:14.152Z,24.96
2018-05-24T18:57:41.639Z,25.11
2018-05-24T19:00:09.109Z,24.87
2018-05-24T19:02:36.653Z,24.86
2018-05-24T19:05:04.145Z,24.53
2018-05-24T19:07:31.665Z,24.76
2018-05-24T19:09:59.270Z,24.81
2018-05-24T19:12:26.761Z,24.53
2018-05-24T19:14:54.264Z,24.45
2018-05-24T19:17:21.760Z,24.57
2018-05-24T19:19:49.267Z,24.65
2018-05-24T19:22:16.842Z,24.37
2018-05-24T19:24:44.339Z,24.16
2018-05-24T19:27:11.851Z,23.99
2018-05-24T19:29:39.336Z,24.04
2018-05-24T19:32:06.890Z,24.05
2018-05-24T19:34:34.398Z,23.93
2018-05-24T19:37:02.627Z,23.78
2018-05-24T19:39:30.112Z,23.75
2018-05-24T19:41:57.631Z,23.63
2018-05-24T19:44:25.146Z,23.70
2018-05-24T19:46:52.636Z,23.91
2018-05-24T19:49:20.161Z,23.63
2018-05-24T19:51:47.633Z,23.57
2018-05-24T19:54:15.180Z,23.57
2018-05-24T19:56:42.648Z,23.36
2018-05-24T19:59:10.201Z,23.42
2018-05-24T20:01:37.704Z,23.28
2018-05-24T20:04:05.207Z,23.39
2018-05-24T20:06:32.741Z,23.22
2018-05-24T20:09:00.259Z,23.21
2018-05-24T20:11:27.792Z,23.11
2018-05-24T20:13:55.277Z,22.91
2018-05-24T20:16:22.857Z,23.02
2018-05-24T20:18:50.364Z,22.92
2018-05-24T20:21:17.899Z,23.00
2018-05-24T20:23:45.420Z,22.90
2018-05-24T20:26:12.929Z,22.75
2018-05-24T20:28:40.908Z,23.20
2018-05-24T20:31:08.584Z,22.57
2018-05-24T20:33:36.108Z,22.67
2018-05-24T20:36:03.640Z,22.67
2018-05-24T20:38:31.148Z,22.69
2018-05-24T20:40:58.637Z,22.52
2018-05-24T20:43:26.489Z,22.43
2018-05-24T20:45:54.070Z,22.40
2018-05-24T20:48:21.574Z,22.42
2018-05-24T20:50:49.136Z,22.50
2018-05-24T20:53:17.100Z,22.20
2018-05-24T20:55:44.737Z,22.19
2018-05-24T20:58:13.005Z,22.40
2018-05-24T21:00:40.565Z,22.07
2018-05-24T21:03:08.076Z,22.14
2018-05-24T21:05:35.629Z,22.08
2018-05-24T21:08:03.145Z,22.00
2018-05-24T21:10:30.680Z,21.99
2018-05-24T21:12:58.161Z,21.86
2018-05-24T21:15:25.691Z,21.83
2018-05-24T21:17:53.299Z,21.58
2018-05-24T21:20:21.219Z,21.87
2018-05-24T21:22:49.828Z,21.72
2018-05-24T21:25:17.396Z,21.89
2018-05-24T21:27:44.920Z,21.76
2018-05-24T21:33:11.534Z,21.50
2018-05-24T21:35:39.035Z,21.48
2018-05-24T21:38:06.621Z,21.28
2018-05-24T21:40:34.094Z,21.43
2018-05-24T21:43:01.638Z,21.40
2018-05-24T21:45:29.126Z,21.11
2018-05-24T21:47:56.674Z,21.38
2018-05-24T21:50:24.176Z,21.49
2018-05-24T21:52:51.728Z,21.32
2018-05-24T21:55:19.264Z,21.22
2018-05-24T21:57:46.779Z,21.13
2018-05-24T22:00:14.298Z,21.27
2018-05-24T22:02:41.797Z,21.26
2018-05-24T22:05:09.304Z,21.39
2018-05-24T22:07:36.801Z,20.97
2018-05-24T22:10:04.284Z,21.05
2018-05-24T22:12:31.785Z,21.03
2018-05-24T22:14:59.260Z,20.88
2018-05-24T22:17:26.769Z,21.07
2018-05-24T22:19:54.257Z,20.73
2018-05-24T22:22:21.805Z,20.82
2018-05-24T22:24:49.275Z,20.53
2018-05-24T22:27:16.816Z,20.80
2018-05-24T22:29:44.334Z,20.65
2018-05-24T22:32:11.811Z,20.60
2018-05-24T22:34:39.320Z,20.64
2018-05-24T22:37:06.821Z,20.43
2018-05-24T22:39:34.344Z,20.51
2018-05-24T22:42:02.317Z,20.34
2018-05-24T22:44:29.880Z,20.33
2018-05-24T22:46:57.354Z,20.48
2018-05-24T22:49:24.930Z,20.43
2018-05-24T22:51:52.406Z,20.22
2018-05-24T22:54:20.912Z,20.15
2018-05-24T22:56:48.435Z,20.30
2018-05-24T22:59:15.952Z,20.22
2018-05-24T23:01:43.476Z,20.42
2018-05-24T23:04:10.993Z,20.09
2018-05-24T23:06:38.966Z,20.05
2018-05-24T23:09:06.486Z,20.21
2018-05-24T23:11:33.976Z,19.83
2018-05-24T23:14:01.457Z,20.12
2018-05-24T23:16:29.029Z,19.97
2018-05-24T23:18:56.529Z,19.89
2018-05-24T23:21:24.547Z,19.69
2018-05-24T23:23:52.045Z,20.05
2018-05-24T23:26:19.542Z,19.77
2018-05-24T23:28:47.056Z,19.98
2018-05-24T23:31:14.587Z,19.93
2018-05-24T23:33:42.157Z,19.66
2018-05-24T23:36:09.637Z,20.00
2018-05-24T23:38:37.144Z,19.86
2018-05-24T23:41:04.702Z,20.14
2018-05-24T23:43:32.183Z,19.65
2018-05-24T23:45:59.702Z,19.89
2018-05-24T23:48:27.183Z,20.03
2018-05-24T23:50:54.686Z,20.05
2018-05-24T23:53:22.218Z,19.60
2018-05-24T23:55:49.719Z,19.89
2018-05-24T23:58:17.205Z,19.62
